sensor_id;sensor_type;location;lat;lon;timestamp;P1;durP1;ratioP1;P2;durP2;ratioP2
6821;SDS011;3449;48.728;8.968;2022-09-25T00:00:40;21.67;;;12.27;;
6821;SDS011;3449;48.728;8.968;2022-09-25T00:03:07;22.37;;;12.47;;
6821;SDS011;3449;48.728;8.968;2022-09-25T00:05:35;21.37;;;13.60;;
6821;SDS011;3449;48.728;8.968;2022-09-25T00:08:03;22.33;;;13.37;;
6821;SDS011;3449;48.728;8.968;2022-09-25T00:10:30;21.77;;;12.97;;
6821;SDS011;3449;48.728;8.968;2022-09-25T00:12:58;24.53;;;13.57;;
6821;SDS011;3449;48.728;8.968;2022-09-25T00:15:25;24.63;;;14.43;;
6821;SDS011;3449;48.728;8.968;2022-09-25T00:17:52;24.57;;;14.50;;
6821;SDS011;3449;48.728;8.968;2022-09-25T00:20:19;23.07;;;13.47;;
6821;SDS011;3449;48.728;8.968;2022-09-25T00:22:46;26.07;;;14.40;;
6821;SDS011;3449;48.728;8.968;2022-09-25T00:25:14;25.30;;;14.37;;
6821;SDS011;3449;48.728;8.968;2022-09-25T00:27:43;24.60;;;13.97;;
6821;SDS011;3449;48.728;8.968;2022-09-25T00:30:10;24.43;;;13.60;;
6821;SDS011;3449;48.728;8.968;2022-09-25T00:32:39;25.17;;;14.63;;
6821;SDS011;3449;48.728;8.968;2022-09-25T00:35:06;26.40;;;14.23;;
6821;SDS011;3449;48.728;8.968;2022-09-25T00:37:33;25.73;;;14.70;;
6821;SDS011;3449;48.728;8.968;2022-09-25T00:40:01;26.83;;;14.60;;
6821;SDS011;3449;48.728;8.968;2022-09-25T00:42:30;26.93;;;14.90;;
6821;SDS011;3449;48.728;8.968;2022-09-25T00:44:57;27.77;;;14.00;;
6821;SDS011;3449;48.728;8.968;2022-09-25T00:47:26;23.13;;;13.90;;
6821;SDS011;3449;48.728;8.968;2022-09-25T00:50:23;23.10;;;14.30;;
6821;SDS011;3449;48.728;8.968;2022-09-25T00:52:55;24.50;;;14.20;;
6821;SDS011;3449;48.728;8.968;2022-09-25T00:55:27;27.27;;;14.90;;
6821;SDS011;3449;48.728;8.968;2022-09-25T00:57:56;27.43;;;15.40;;
6821;SDS011;3449;48.728;8.968;2022-09-25T01:00:26;26.73;;;15.47;;
6821;SDS011;3449;48.728;8.968;2022-09-25T01:02:53;30.23;;;15.50;;
6821;SDS011;3449;48.728;8.968;2022-09-25T01:05:22;28.30;;;14.03;;
6821;SDS011;3449;48.728;8.968;2022-09-25T01:07:52;26.43;;;15.10;;
6821;SDS011;3449;48.728;8.968;2022-09-25T01:10:22;24.63;;;14.53;;
6821;SDS011;3449;48.728;8.968;2022-09-25T01:12:49;24.63;;;14.30;;
6821;SDS011;3449;48.728;8.968;2022-09-25T01:15:19;24.90;;;14.17;;
6821;SDS011;3449;48.728;8.968;2022-09-25T01:17:52;24.17;;;13.73;;
6821;SDS011;3449;48.728;8.968;2022-09-25T01:20:32;23.67;;;13.47;;
6821;SDS011;3449;48.728;8.968;2022-09-25T01:23:13;20.63;;;13.70;;
6821;SDS011;3449;48.728;8.968;2022-09-25T01:25:49;21.73;;;12.87;;
6821;SDS011;3449;48.728;8.968;2022-09-25T01:31:33;23.77;;;14.43;;
6821;SDS011;3449;48.728;8.968;2022-09-25T01:34:07;28.23;;;15.00;;
6821;SDS011;3449;48.728;8.968;2022-09-25T01:36:46;22.13;;;12.27;;
6821;SDS011;3449;48.728;8.968;2022-09-25T01:39:17;20.30;;;12.00;;
6821;SDS011;3449;48.728;8.968;2022-09-25T01:41:48;29.67;;;13.60;;
6821;SDS011;3449;48.728;8.968;2022-09-25T01:44:22;22.73;;;12.50;;
6821;SDS011;3449;48.728;8.968;2022-09-25T01:46:54;19.77;;;11.63;;
6821;SDS011;3449;48.728;8.968;2022-09-25T01:49:25;23.00;;;11.90;;
6821;SDS011;3449;48.728;8.968;2022-09-25T01:51:55;15.67;;;11.00;;
6821;SDS011;3449;48.728;8.968;2022-09-25T01:54:26;15.10;;;9.97;;
6821;SDS011;3449;48.728;8.968;2022-09-25T01:56:57;18.60;;;10.97;;
6821;SDS011;3449;48.728;8.968;2022-09-25T01:59:32;17.97;;;10.60;;
6821;SDS011;3449;48.728;8.968;2022-09-25T02:02:02;15.20;;;9.13;;
6821;SDS011;3449;48.728;8.968;2022-09-25T02:04:34;19.70;;;10.70;;
6821;SDS011;3449;48.728;8.968;2022-09-25T02:07:07;22.13;;;11.97;;
6821;SDS011;3449;48.728;8.968;2022-09-25T02:09:39;16.43;;;10.40;;
6821;SDS011;3449;48.728;8.968;2022-09-25T02:12:10;17.07;;;11.20;;
6821;SDS011;3449;48.728;8.968;2022-09-25T02:14:43;15.93;;;10.20;;
6821;SDS011;3449;48.728;8.968;2022-09-25T02:17:19;16.70;;;10.90;;
6821;SDS011;3449;48.728;8.968;2022-09-25T02:20:11;17.07;;;10.10;;
6821;SDS011;3449;48.728;8.968;2022-09-25T02:22:57;15.10;;;10.20;;
6821;SDS011;3449;48.728;8.968;2022-09-25T02:25:34;14.40;;;9.63;;
6821;SDS011;3449;48.728;8.968;2022-09-25T02:28:03;15.60;;;10.07;;
6821;SDS011;3449;48.728;8.968;2022-09-25T02:30:32;13.83;;;10.13;;
6821;SDS011;3449;48.728;8.968;2022-09-25T02:32:59;17.37;;;10.80;;
6821;SDS011;3449;48.728;8.968;2022-09-25T02:35:25;17.87;;;11.70;;
6821;SDS011;3449;48.728;8.968;2022-09-25T02:37:52;20.30;;;12.13;;
6821;SDS011;3449;48.728;8.968;2022-09-25T02:40:21;20.00;;;11.27;;
6821;SDS011;3449;48.728;8.968;2022-09-25T02:42:58;18.70;;;11.90;;
6821;SDS011;3449;48.728;8.968;2022-09-25T02:45:36;22.90;;;12.80;;
6821;SDS011;3449;48.728;8.968;2022-09-25T02:48:10;18.60;;;11.63;;
6821;SDS011;3449;48.728;8.968;2022-09-25T02:50:45;16.30;;;10.87;;
6821;SDS011;3449;48.728;8.968;2022-09-25T02:53:20;17.23;;;11.63;;
6821;SDS011;3449;48.728;8.968;2022-09-25T02:55:59;22.33;;;13.70;;
6821;SDS011;3449;48.728;8.968;2022-09-25T02:58:32;23.80;;;13.60;;
6821;SDS011;3449;48.728;8.968;2022-09-25T03:01:04;25.07;;;14.27;;
6821;SDS011;3449;48.728;8.968;2022-09-25T03:03:34;24.20;;;13.57;;
6821;SDS011;3449;48.728;8.968;2022-09-25T03:06:04;28.63;;;12.27;;
6821;SDS011;3449;48.728;8.968;2022-09-25T03:08:33;26.03;;;13.57;;
6821;SDS011;3449;48.728;8.968;2022-09-25T03:11:03;22.43;;;12.23;;
6821;SDS011;3449;48.728;8.968;2022-09-25T03:13:32;17.40;;;10.60;;
6821;SDS011;3449;48.728;8.968;2022-09-25T03:16:00;15.37;;;9.27;;
6821;SDS011;3449;48.728;8.968;2022-09-25T03:18:30;15.23;;;9.73;;
6821;SDS011;3449;48.728;8.968;2022-09-25T03:20:57;18.13;;;10.27;;
6821;SDS011;3449;48.728;8.968;2022-09-25T03:23:24;16.90;;;9.70;;
6821;SDS011;3449;48.728;8.968;2022-09-25T03:25:52;13.43;;;8.50;;
6821;SDS011;3449;48.728;8.968;2022-09-25T03:28:19;14.50;;;9.33;;
6821;SDS011;3449;48.728;8.968;2022-09-25T03:30:57;13.80;;;9.73;;
6821;SDS011;3449;48.728;8.968;2022-09-25T03:33:25;17.53;;;10.03;;
6821;SDS011;3449;48.728;8.968;2022-09-25T03:36:01;12.50;;;8.50;;
6821;SDS011;3449;48.728;8.968;2022-09-25T03:38:33;13.47;;;8.30;;
6821;SDS011;3449;48.728;8.968;2022-09-25T03:41:01;15.67;;;9.60;;
6821;SDS011;3449;48.728;8.968;2022-09-25T03:43:29;17.17;;;10.70;;
6821;SDS011;3449;48.728;8.968;2022-09-25T03:45:56;17.47;;;10.80;;
6821;SDS011;3449;48.728;8.968;2022-09-25T03:48:23;19.60;;;10.50;;
6821;SDS011;3449;48.728;8.968;2022-09-25T03:50:50;13.60;;;9.93;;
6821;SDS011;3449;48.728;8.968;2022-09-25T03:53:18;16.03;;;10.10;;
6821;SDS011;3449;48.728;8.968;2022-09-25T03:55:45;19.80;;;10.20;;
6821;SDS011;3449;48.728;8.968;2022-09-25T03:58:13;13.30;;;9.47;;
6821;SDS011;3449;48.728;8.968;2022-09-25T04:00:40;16.03;;;10.00;;
6821;SDS011;3449;48.728;8.968;2022-09-25T04:03:08;16.03;;;9.27;;
6821;SDS011;3449;48.728;8.968;2022-09-25T04:05:35;14.37;;;8.77;;
6821;SDS011;3449;48.728;8.968;2022-09-25T04:08:03;14.27;;;8.90;;
6821;SDS011;3449;48.728;8.968;2022-09-25T04:10:32;13.00;;;8.67;;
6821;SDS011;3449;48.728;8.968;2022-09-25T04:13:03;15.57;;;9.30;;
6821;SDS011;3449;48.728;8.968;2022-09-25T04:15:30;20.33;;;9.83;;
6821;SDS011;3449;48.728;8.968;2022-09-25T04:17:57;16.00;;;9.77;;
6821;SDS011;3449;48.728;8.968;2022-09-25T04:20:24;14.77;;;8.23;;
6821;SDS011;3449;48.728;8.968;2022-09-25T04:22:52;17.03;;;9.70;;
6821;SDS011;3449;48.728;8.968;2022-09-25T04:25:19;17.93;;;9.27;;
6821;SDS011;3449;48.728;8.968;2022-09-25T04:27:50;16.37;;;10.30;;
6821;SDS011;3449;48.728;8.968;2022-09-25T04:30:19;16.20;;;9.23;;
6821;SDS011;3449;48.728;8.968;2022-09-25T04:32:46;13.83;;;8.30;;
6821;SDS011;3449;48.728;8.968;2022-09-25T04:35:30;13.83;;;8.60;;
6821;SDS011;3449;48.728;8.968;2022-09-25T04:37:57;13.53;;;8.70;;
6821;SDS011;3449;48.728;8.968;2022-09-25T04:40:25;14.90;;;10.00;;
6821;SDS011;3449;48.728;8.968;2022-09-25T04:42:55;13.90;;;8.17;;
6821;SDS011;3449;48.728;8.968;2022-09-25T04:45:22;11.10;;;7.93;;
6821;SDS011;3449;48.728;8.968;2022-09-25T04:47:50;13.10;;;8.20;;
6821;SDS011;3449;48.728;8.968;2022-09-25T04:50:17;13.43;;;8.93;;
6821;SDS011;3449;48.728;8.968;2022-09-25T04:52:44;15.50;;;9.90;;
6821;SDS011;3449;48.728;8.968;2022-09-25T04:55:11;13.93;;;9.17;;
6821;SDS011;3449;48.728;8.968;2022-09-25T04:57:38;17.23;;;10.10;;
6821;SDS011;3449;48.728;8.968;2022-09-25T05:00:07;16.10;;;9.50;;
6821;SDS011;3449;48.728;8.968;2022-09-25T05:02:35;14.00;;;8.53;;
6821;SDS011;3449;48.728;8.968;2022-09-25T05:05:02;16.40;;;8.97;;
6821;SDS011;3449;48.728;8.968;2022-09-25T05:07:29;15.50;;;9.83;;
6821;SDS011;3449;48.728;8.968;2022-09-25T05:09:56;15.07;;;9.17;;
6821;SDS011;3449;48.728;8.968;2022-09-25T05:12:22;20.77;;;9.80;;
6821;SDS011;3449;48.728;8.968;2022-09-25T05:14:49;14.47;;;8.80;;
6821;SDS011;3449;48.728;8.968;2022-09-25T05:17:17;13.70;;;9.30;;
6821;SDS011;3449;48.728;8.968;2022-09-25T05:19:44;17.60;;;9.33;;
6821;SDS011;3449;48.728;8.968;2022-09-25T05:22:11;14.50;;;9.30;;
6821;SDS011;3449;48.728;8.968;2022-09-25T05:24:38;17.67;;;9.60;;
6821;SDS011;3449;48.728;8.968;2022-09-25T05:27:05;14.80;;;9.73;;
6821;SDS011;3449;48.728;8.968;2022-09-25T05:29:32;18.53;;;11.73;;
6821;SDS011;3449;48.728;8.968;2022-09-25T05:31:59;16.50;;;9.50;;
6821;SDS011;3449;48.728;8.968;2022-09-25T05:34:28;18.97;;;10.73;;
6821;SDS011;3449;48.728;8.968;2022-09-25T05:36:54;15.70;;;9.77;;
6821;SDS011;3449;48.728;8.968;2022-09-25T05:39:21;21.20;;;9.93;;
6821;SDS011;3449;48.728;8.968;2022-09-25T05:41:48;14.90;;;9.67;;
6821;SDS011;3449;48.728;8.968;2022-09-25T05:44:15;14.63;;;9.27;;
6821;SDS011;3449;48.728;8.968;2022-09-25T05:46:42;15.77;;;9.30;;
6821;SDS011;3449;48.728;8.968;2022-09-25T05:49:09;12.37;;;8.43;;
6821;SDS011;3449;48.728;8.968;2022-09-25T05:51:38;13.70;;;9.33;;
6821;SDS011;3449;48.728;8.968;2022-09-25T05:54:05;13.73;;;8.37;;
6821;SDS011;3449;48.728;8.968;2022-09-25T05:56:31;12.13;;;7.60;;
6821;SDS011;3449;48.728;8.968;2022-09-25T05:58:58;12.13;;;7.63;;
6821;SDS011;3449;48.728;8.968;2022-09-25T06:01:25;11.87;;;7.73;;
6821;SDS011;3449;48.728;8.968;2022-09-25T06:03:52;10.37;;;7.53;;
6821;SDS011;3449;48.728;8.968;2022-09-25T06:06:19;10.53;;;6.77;;
6821;SDS011;3449;48.728;8.968;2022-09-25T06:08:47;7.93;;;6.73;;
6821;SDS011;3449;48.728;8.968;2022-09-25T06:11:14;10.60;;;7.23;;
6821;SDS011;3449;48.728;8.968;2022-09-25T06:13:41;7.97;;;6.20;;
6821;SDS011;3449;48.728;8.968;2022-09-25T06:16:13;9.37;;;6.37;;
6821;SDS011;3449;48.728;8.968;2022-09-25T06:18:43;9.07;;;6.63;;
6821;SDS011;3449;48.728;8.968;2022-09-25T06:21:11;11.63;;;7.43;;
6821;SDS011;3449;48.728;8.968;2022-09-25T06:23:38;12.10;;;7.13;;
6821;SDS011;3449;48.728;8.968;2022-09-25T06:26:09;12.03;;;7.60;;
6821;SDS011;3449;48.728;8.968;2022-09-25T06:28:36;8.23;;;6.73;;
6821;SDS011;3449;48.728;8.968;2022-09-25T06:31:03;12.17;;;8.40;;
6821;SDS011;3449;48.728;8.968;2022-09-25T06:33:30;9.60;;;7.50;;
6821;SDS011;3449;48.728;8.968;2022-09-25T06:35:58;10.60;;;7.53;;
6821;SDS011;3449;48.728;8.968;2022-09-25T06:38:25;19.57;;;12.50;;
6821;SDS011;3449;48.728;8.968;2022-09-25T06:40:52;11.83;;;8.40;;
6821;SDS011;3449;48.728;8.968;2022-09-25T06:43:20;14.17;;;11.40;;
6821;SDS011;3449;48.728;8.968;2022-09-25T06:45:47;12.33;;;9.50;;
6821;SDS011;3449;48.728;8.968;2022-09-25T06:48:15;13.00;;;8.83;;
6821;SDS011;3449;48.728;8.968;2022-09-25T06:50:44;9.90;;;6.93;;
6821;SDS011;3449;48.728;8.968;2022-09-25T06:53:13;10.03;;;7.17;;
6821;SDS011;3449;48.728;8.968;2022-09-25T06:55:40;11.97;;;8.40;;
6821;SDS011;3449;48.728;8.968;2022-09-25T06:58:09;11.13;;;7.57;;
6821;SDS011;3449;48.728;8.968;2022-09-25T07:00:39;12.67;;;8.23;;
6821;SDS011;3449;48.728;8.968;2022-09-25T07:03:06;10.30;;;7.27;;
6821;SDS011;3449;48.728;8.968;2022-09-25T07:05:50;9.00;;;7.17;;
6821;SDS011;3449;48.728;8.968;2022-09-25T07:08:18;15.37;;;9.10;;
6821;SDS011;3449;48.728;8.968;2022-09-25T07:10:46;10.27;;;7.53;;
6821;SDS011;3449;48.728;8.968;2022-09-25T07:13:14;12.60;;;7.87;;
6821;SDS011;3449;48.728;8.968;2022-09-25T07:15:43;12.33;;;8.00;;
6821;SDS011;3449;48.728;8.968;2022-09-25T07:18:16;13.87;;;8.73;;
6821;SDS011;3449;48.728;8.968;2022-09-25T07:20:42;11.33;;;7.77;;
6821;SDS011;3449;48.728;8.968;2022-09-25T07:23:11;11.50;;;8.30;;
6821;SDS011;3449;48.728;8.968;2022-09-25T07:25:38;11.70;;;8.47;;
6821;SDS011;3449;48.728;8.968;2022-09-25T07:28:05;13.97;;;9.20;;
6821;SDS011;3449;48.728;8.968;2022-09-25T07:30:32;12.53;;;7.93;;
6821;SDS011;3449;48.728;8.968;2022-09-25T07:33:01;16.37;;;8.37;;
6821;SDS011;3449;48.728;8.968;2022-09-25T07:35:28;13.27;;;9.03;;
6821;SDS011;3449;48.728;8.968;2022-09-25T07:37:55;11.40;;;7.70;;
6821;SDS011;3449;48.728;8.968;2022-09-25T07:40:22;19.53;;;12.13;;
6821;SDS011;3449;48.728;8.968;2022-09-25T07:42:50;18.97;;;11.47;;
6821;SDS011;3449;48.728;8.968;2022-09-25T07:45:17;12.77;;;8.53;;
6821;SDS011;3449;48.728;8.968;2022-09-25T07:47:44;13.97;;;9.47;;
6821;SDS011;3449;48.728;8.968;2022-09-25T07:50:12;16.53;;;9.10;;
6821;SDS011;3449;48.728;8.968;2022-09-25T07:52:39;13.60;;;9.10;;
6821;SDS011;3449;48.728;8.968;2022-09-25T07:55:06;14.47;;;9.27;;
6821;SDS011;3449;48.728;8.968;2022-09-25T07:57:34;14.47;;;8.50;;
6821;SDS011;3449;48.728;8.968;2022-09-25T08:00:01;13.30;;;8.10;;
6821;SDS011;3449;48.728;8.968;2022-09-25T08:02:29;16.37;;;9.13;;
6821;SDS011;3449;48.728;8.968;2022-09-25T08:04:59;12.97;;;7.97;;
6821;SDS011;3449;48.728;8.968;2022-09-25T08:07:27;16.20;;;8.77;;
6821;SDS011;3449;48.728;8.968;2022-09-25T08:09:54;12.03;;;8.50;;
6821;SDS011;3449;48.728;8.968;2022-09-25T08:12:21;12.03;;;8.20;;
6821;SDS011;3449;48.728;8.968;2022-09-25T08:14:49;10.70;;;7.70;;
6821;SDS011;3449;48.728;8.968;2022-09-25T08:17:16;15.97;;;9.53;;
6821;SDS011;3449;48.728;8.968;2022-09-25T08:19:43;10.67;;;7.43;;
6821;SDS011;3449;48.728;8.968;2022-09-25T08:22:10;17.80;;;7.97;;
6821;SDS011;3449;48.728;8.968;2022-09-25T08:24:39;10.90;;;7.47;;
6821;SDS011;3449;48.728;8.968;2022-09-25T08:27:06;17.20;;;8.23;;
6821;SDS011;3449;48.728;8.968;2022-09-25T08:29:33;9.83;;;7.10;;
6821;SDS011;3449;48.728;8.968;2022-09-25T08:32:00;10.87;;;7.53;;
6821;SDS011;3449;48.728;8.968;2022-09-25T08:34:27;9.07;;;6.80;;
6821;SDS011;3449;48.728;8.968;2022-09-25T08:36:54;10.90;;;6.97;;
6821;SDS011;3449;48.728;8.968;2022-09-25T08:39:22;9.63;;;6.40;;
6821;SDS011;3449;48.728;8.968;2022-09-25T08:41:50;8.37;;;6.63;;
6821;SDS011;3449;48.728;8.968;2022-09-25T08:44:21;10.80;;;6.93;;
6821;SDS011;3449;48.728;8.968;2022-09-25T08:46:51;12.13;;;7.20;;
6821;SDS011;3449;48.728;8.968;2022-09-25T08:49:40;10.10;;;6.73;;
6821;SDS011;3449;48.728;8.968;2022-09-25T08:52:11;7.93;;;6.40;;
6821;SDS011;3449;48.728;8.968;2022-09-25T08:54:42;8.33;;;6.10;;
6821;SDS011;3449;48.728;8.968;2022-09-25T08:57:12;12.83;;;6.40;;
6821;SDS011;3449;48.728;8.968;2022-09-25T08:59:51;8.20;;;5.57;;
6821;SDS011;3449;48.728;8.968;2022-09-25T09:02:21;6.50;;;5.40;;
6821;SDS011;3449;48.728;8.968;2022-09-25T09:04:56;9.80;;;7.00;;
6821;SDS011;3449;48.728;8.968;2022-09-25T09:07:26;7.30;;;5.50;;
6821;SDS011;3449;48.728;8.968;2022-09-25T09:09:59;11.63;;;5.90;;
6821;SDS011;3449;48.728;8.968;2022-09-25T09:12:34;10.10;;;6.30;;
6821;SDS011;3449;48.728;8.968;2022-09-25T09:15:06;7.87;;;6.00;;
6821;SDS011;3449;48.728;8.968;2022-09-25T09:17:41;10.17;;;6.50;;
6821;SDS011;3449;48.728;8.968;2022-09-25T09:20:12;8.13;;;6.30;;
6821;SDS011;3449;48.728;8.968;2022-09-25T09:22:44;6.53;;;5.00;;
6821;SDS011;3449;48.728;8.968;2022-09-25T09:25:18;7.30;;;5.30;;
6821;SDS011;3449;48.728;8.968;2022-09-25T09:31:15;7.10;;;5.00;;
6821;SDS011;3449;48.728;8.968;2022-09-25T09:33:50;9.10;;;5.40;;
6821;SDS011;3449;48.728;8.968;2022-09-25T09:36:25;7.43;;;5.03;;
6821;SDS011;3449;48.728;8.968;2022-09-25T09:39:01;9.37;;;4.93;;
6821;SDS011;3449;48.728;8.968;2022-09-25T09:41:45;12.07;;;5.33;;
6821;SDS011;3449;48.728;8.968;2022-09-25T09:44:27;6.50;;;5.27;;
6821;SDS011;3449;48.728;8.968;2022-09-25T09:47:06;6.20;;;4.60;;
6821;SDS011;3449;48.728;8.968;2022-09-25T09:49:43;6.80;;;4.90;;
6821;SDS011;3449;48.728;8.968;2022-09-25T09:52:16;8.00;;;5.57;;
6821;SDS011;3449;48.728;8.968;2022-09-25T09:54:47;9.50;;;5.83;;
6821;SDS011;3449;48.728;8.968;2022-09-25T09:57:18;7.00;;;5.00;;
6821;SDS011;3449;48.728;8.968;2022-09-25T09:59:50;7.47;;;5.00;;
6821;SDS011;3449;48.728;8.968;2022-09-25T10:02:28;7.20;;;5.47;;
6821;SDS011;3449;48.728;8.968;2022-09-25T10:04:58;9.17;;;6.00;;
6821;SDS011;3449;48.728;8.968;2022-09-25T10:07:28;8.10;;;5.67;;
6821;SDS011;3449;48.728;8.968;2022-09-25T10:09:59;10.43;;;5.20;;
6821;SDS011;3449;48.728;8.968;2022-09-25T10:12:26;9.00;;;5.20;;
6821;SDS011;3449;48.728;8.968;2022-09-25T10:14:57;7.93;;;6.00;;
6821;SDS011;3449;48.728;8.968;2022-09-25T10:17:28;8.00;;;6.30;;
6821;SDS011;3449;48.728;8.968;2022-09-25T10:19:56;8.00;;;5.80;;
6821;SDS011;3449;48.728;8.968;2022-09-25T10:22:25;7.60;;;6.13;;
6821;SDS011;3449;48.728;8.968;2022-09-25T10:24:54;12.93;;;7.33;;
6821;SDS011;3449;48.728;8.968;2022-09-25T10:27:27;10.87;;;6.83;;
6821;SDS011;3449;48.728;8.968;2022-09-25T10:30:11;23.03;;;7.93;;
6821;SDS011;3449;48.728;8.968;2022-09-25T10:32:43;9.60;;;6.60;;
6821;SDS011;3449;48.728;8.968;2022-09-25T10:35:14;12.80;;;7.13;;
6821;SDS011;3449;48.728;8.968;2022-09-25T10:37:43;9.77;;;7.30;;
6821;SDS011;3449;48.728;8.968;2022-09-25T10:40:22;8.13;;;5.87;;
6821;SDS011;3449;48.728;8.968;2022-09-25T10:43:01;21.83;;;6.60;;
6821;SDS011;3449;48.728;8.968;2022-09-25T10:45:32;9.80;;;6.67;;
6821;SDS011;3449;48.728;8.968;2022-09-25T10:48:07;7.70;;;6.30;;
6821;SDS011;3449;48.728;8.968;2022-09-25T10:51:13;11.73;;;6.67;;
6821;SDS011;3449;48.728;8.968;2022-09-25T10:53:42;9.50;;;5.53;;
6821;SDS011;3449;48.728;8.968;2022-09-25T10:56:11;10.70;;;5.50;;
6821;SDS011;3449;48.728;8.968;2022-09-25T10:58:42;11.13;;;6.73;;
6821;SDS011;3449;48.728;8.968;2022-09-25T11:01:11;11.47;;;5.47;;
6821;SDS011;3449;48.728;8.968;2022-09-25T11:03:45;7.90;;;6.20;;
6821;SDS011;3449;48.728;8.968;2022-09-25T11:06:17;8.90;;;6.67;;
6821;SDS011;3449;48.728;8.968;2022-09-25T11:08:48;17.40;;;6.67;;
6821;SDS011;3449;48.728;8.968;2022-09-25T11:11:27;10.00;;;5.60;;
6821;SDS011;3449;48.728;8.968;2022-09-25T11:13:55;11.30;;;8.00;;
6821;SDS011;3449;48.728;8.968;2022-09-25T11:19:13;14.63;;;10.30;;
6821;SDS011;3449;48.728;8.968;2022-09-25T11:21:48;16.97;;;10.40;;
6821;SDS011;3449;48.728;8.968;2022-09-25T11:24:22;22.50;;;11.90;;
6821;SDS011;3449;48.728;8.968;2022-09-25T11:26:56;16.20;;;11.87;;
6821;SDS011;3449;48.728;8.968;2022-09-25T11:29:31;18.30;;;13.07;;
6821;SDS011;3449;48.728;8.968;2022-09-25T11:32:12;23.27;;;13.70;;
6821;SDS011;3449;48.728;8.968;2022-09-25T11:34:56;20.10;;;13.10;;
6821;SDS011;3449;48.728;8.968;2022-09-25T11:37:33;21.30;;;14.23;;
6821;SDS011;3449;48.728;8.968;2022-09-25T11:40:10;23.70;;;13.47;;
6821;SDS011;3449;48.728;8.968;2022-09-25T11:43:06;21.97;;;14.17;;
6821;SDS011;3449;48.728;8.968;2022-09-25T11:45:38;25.43;;;14.87;;
6821;SDS011;3449;48.728;8.968;2022-09-25T11:48:11;26.90;;;14.30;;
6821;SDS011;3449;48.728;8.968;2022-09-25T11:50:50;27.53;;;15.30;;
6821;SDS011;3449;48.728;8.968;2022-09-25T11:53:26;25.13;;;14.40;;
6821;SDS011;3449;48.728;8.968;2022-09-25T11:56:17;23.60;;;14.93;;
6821;SDS011;3449;48.728;8.968;2022-09-25T11:58:56;22.07;;;14.00;;
6821;SDS011;3449;48.728;8.968;2022-09-25T12:01:42;21.73;;;13.70;;
6821;SDS011;3449;48.728;8.968;2022-09-25T12:04:19;18.33;;;13.07;;
6821;SDS011;3449;48.728;8.968;2022-09-25T12:07:14;22.27;;;13.27;;
6821;SDS011;3449;48.728;8.968;2022-09-25T12:10:02;24.53;;;13.00;;
6821;SDS011;3449;48.728;8.968;2022-09-25T12:12:38;21.43;;;12.40;;
6821;SDS011;3449;48.728;8.968;2022-09-25T12:15:14;19.80;;;13.03;;
6821;SDS011;3449;48.728;8.968;2022-09-25T12:17:52;17.67;;;12.73;;
6821;SDS011;3449;48.728;8.968;2022-09-25T12:20:27;22.30;;;12.00;;
6821;SDS011;3449;48.728;8.968;2022-09-25T12:23:04;16.93;;;10.50;;
6821;SDS011;3449;48.728;8.968;2022-09-25T12:25:44;19.80;;;12.93;;
6821;SDS011;3449;48.728;8.968;2022-09-25T12:28:22;16.97;;;11.17;;
6821;SDS011;3449;48.728;8.968;2022-09-25T12:30:59;17.00;;;10.90;;
6821;SDS011;3449;48.728;8.968;2022-09-25T12:33:36;15.80;;;10.53;;
6821;SDS011;3449;48.728;8.968;2022-09-25T12:36:10;16.33;;;10.90;;
6821;SDS011;3449;48.728;8.968;2022-09-25T12:38:44;17.40;;;10.80;;
6821;SDS011;3449;48.728;8.968;2022-09-25T12:41:17;16.50;;;10.53;;
6821;SDS011;3449;48.728;8.968;2022-09-25T12:43:53;17.70;;;11.00;;
6821;SDS011;3449;48.728;8.968;2022-09-25T12:46:26;14.20;;;9.30;;
6821;SDS011;3449;48.728;8.968;2022-09-25T12:48:59;16.00;;;9.90;;
6821;SDS011;3449;48.728;8.968;2022-09-25T12:51:31;15.83;;;11.10;;
6821;SDS011;3449;48.728;8.968;2022-09-25T12:54:10;15.43;;;10.53;;
6821;SDS011;3449;48.728;8.968;2022-09-25T12:56:45;17.20;;;11.13;;
6821;SDS011;3449;48.728;8.968;2022-09-25T12:59:18;19.33;;;11.03;;
6821;SDS011;3449;48.728;8.968;2022-09-25T13:01:51;18.93;;;11.10;;
6821;SDS011;3449;48.728;8.968;2022-09-25T13:04:26;17.73;;;11.33;;
6821;SDS011;3449;48.728;8.968;2022-09-25T13:07:02;18.47;;;11.67;;
6821;SDS011;3449;48.728;8.968;2022-09-25T13:09:38;19.70;;;11.47;;
6821;SDS011;3449;48.728;8.968;2022-09-25T13:12:08;17.30;;;10.73;;
6821;SDS011;3449;48.728;8.968;2022-09-25T13:14:43;14.97;;;10.03;;
6821;SDS011;3449;48.728;8.968;2022-09-25T13:17:16;16.60;;;10.67;;
6821;SDS011;3449;48.728;8.968;2022-09-25T13:19:43;18.47;;;10.47;;
6821;SDS011;3449;48.728;8.968;2022-09-25T13:22:11;18.53;;;10.67;;
6821;SDS011;3449;48.728;8.968;2022-09-25T13:24:48;17.80;;;11.93;;
6821;SDS011;3449;48.728;8.968;2022-09-25T13:27:17;17.03;;;10.27;;
6821;SDS011;3449;48.728;8.968;2022-09-25T13:29:51;17.50;;;10.07;;
6821;SDS011;3449;48.728;8.968;2022-09-25T13:32:21;13.97;;;10.10;;
6821;SDS011;3449;48.728;8.968;2022-09-25T13:34:53;17.40;;;10.83;;
6821;SDS011;3449;48.728;8.968;2022-09-25T13:37:23;19.07;;;11.00;;
6821;SDS011;3449;48.728;8.968;2022-09-25T13:39:53;16.20;;;11.60;;
6821;SDS011;3449;48.728;8.968;2022-09-25T13:42:39;16.60;;;10.40;;
6821;SDS011;3449;48.728;8.968;2022-09-25T13:45:28;15.60;;;10.17;;
6821;SDS011;3449;48.728;8.968;2022-09-25T13:47:58;14.40;;;10.30;;
6821;SDS011;3449;48.728;8.968;2022-09-25T13:50:36;16.27;;;10.77;;
6821;SDS011;3449;48.728;8.968;2022-09-25T13:59:02;18.80;;;10.70;;
6821;SDS011;3449;48.728;8.968;2022-09-25T14:01:52;19.83;;;11.40;;
6821;SDS011;3449;48.728;8.968;2022-09-25T14:07:12;19.30;;;12.00;;
6821;SDS011;3449;48.728;8.968;2022-09-25T14:09:45;13.07;;;9.10;;
6821;SDS011;3449;48.728;8.968;2022-09-25T14:12:22;15.13;;;9.67;;
6821;SDS011;3449;48.728;8.968;2022-09-25T14:14:53;16.23;;;10.50;;
6821;SDS011;3449;48.728;8.968;2022-09-25T14:17:24;13.40;;;8.90;;
6821;SDS011;3449;48.728;8.968;2022-09-25T14:19:56;16.30;;;9.37;;
6821;SDS011;3449;48.728;8.968;2022-09-25T14:22:29;18.40;;;10.07;;
6821;SDS011;3449;48.728;8.968;2022-09-25T14:25:01;13.53;;;9.60;;
6821;SDS011;3449;48.728;8.968;2022-09-25T14:27:30;16.20;;;9.60;;
6821;SDS011;3449;48.728;8.968;2022-09-25T14:30:04;18.27;;;10.30;;
6821;SDS011;3449;48.728;8.968;2022-09-25T14:32:37;15.73;;;10.10;;
6821;SDS011;3449;48.728;8.968;2022-09-25T14:35:21;14.40;;;8.57;;
6821;SDS011;3449;48.728;8.968;2022-09-25T14:38:03;16.07;;;9.77;;
6821;SDS011;3449;48.728;8.968;2022-09-25T14:40:49;14.37;;;9.13;;
6821;SDS011;3449;48.728;8.968;2022-09-25T14:43:36;18.77;;;8.03;;
6821;SDS011;3449;48.728;8.968;2022-09-25T14:46:13;14.80;;;9.13;;
6821;SDS011;3449;48.728;8.968;2022-09-25T14:48:44;16.43;;;9.70;;
6821;SDS011;3449;48.728;8.968;2022-09-25T14:51:18;16.30;;;9.60;;
6821;SDS011;3449;48.728;8.968;2022-09-25T14:53:49;13.20;;;8.13;;
6821;SDS011;3449;48.728;8.968;2022-09-25T14:56:19;14.50;;;8.63;;
6821;SDS011;3449;48.728;8.968;2022-09-25T14:58:49;16.20;;;9.30;;
6821;SDS011;3449;48.728;8.968;2022-09-25T15:01:22;16.63;;;9.73;;
6821;SDS011;3449;48.728;8.968;2022-09-25T15:03:52;16.70;;;9.40;;
6821;SDS011;3449;48.728;8.968;2022-09-25T15:06:23;12.17;;;8.77;;
6821;SDS011;3449;48.728;8.968;2022-09-25T15:08:54;19.10;;;11.33;;
6821;SDS011;3449;48.728;8.968;2022-09-25T15:11:22;15.80;;;11.00;;
6821;SDS011;3449;48.728;8.968;2022-09-25T15:14:06;12.40;;;8.07;;
6821;SDS011;3449;48.728;8.968;2022-09-25T15:16:35;12.93;;;8.27;;
6821;SDS011;3449;48.728;8.968;2022-09-25T15:19:21;13.13;;;8.40;;
6821;SDS011;3449;48.728;8.968;2022-09-25T15:21:52;14.83;;;7.83;;
6821;SDS011;3449;48.728;8.968;2022-09-25T15:24:20;12.73;;;8.23;;
6821;SDS011;3449;48.728;8.968;2022-09-25T15:26:53;15.07;;;7.47;;
6821;SDS011;3449;48.728;8.968;2022-09-25T15:29:28;13.60;;;8.33;;
6821;SDS011;3449;48.728;8.968;2022-09-25T15:31:57;13.53;;;7.83;;
6821;SDS011;3449;48.728;8.968;2022-09-25T15:34:25;10.50;;;8.03;;
6821;SDS011;3449;48.728;8.968;2022-09-25T15:36:54;17.87;;;9.87;;
6821;SDS011;3449;48.728;8.968;2022-09-25T15:39:38;14.83;;;8.93;;
6821;SDS011;3449;48.728;8.968;2022-09-25T15:42:06;14.67;;;9.20;;